createdAt,value
2018-11-13T05:36:44.585Z,0.90
2018-11-13T05:39:12.668Z,0.87
2018-11-13T05:41:41.123Z,0.70
2018-11-13T05:44:09.829Z,0.97
2018-11-13T05:46:38.304Z,0.60
2018-11-13T05:49:06.424Z,0.60
2018-11-13T05:51:34.961Z,0.70
2018-11-13T05:54:03.140Z,0.60
2018-11-13T05:56:31.221Z,0.60
2018-11-13T05:58:59.417Z,0.60
2018-11-13T06:01:27.518Z,0.50
2018-11-13T06:03:55.592Z,0.60
2018-11-13T06:06:23.761Z,0.50
2018-11-13T06:08:51.984Z,0.53
2018-11-13T06:11:20.056Z,0.70
2018-11-13T06:13:48.144Z,0.60
2018-11-13T06:16:16.195Z,0.60
2018-11-13T06:18:44.406Z,0.60
2018-11-13T06:21:12.563Z,0.60
2018-11-13T06:23:40.707Z,0.63
2018-11-13T06:26:08.825Z,0.70
2018-11-13T06:28:36.881Z,0.60
2018-11-13T06:31:05.265Z,0.70
2018-11-13T06:33:33.879Z,0.70
2018-11-13T06:36:02.072Z,0.40
2018-11-13T06:38:30.164Z,0.50
2018-11-13T06:40:58.422Z,0.80
2018-11-13T06:43:26.533Z,0.60
2018-11-13T06:45:54.665Z,0.50
2018-11-13T06:48:22.805Z,0.70
2018-11-13T06:50:50.925Z,0.73
2018-11-13T06:53:19.109Z,0.60
2018-11-13T06:55:52.963Z,0.80
2018-11-13T06:58:21.120Z,0.80
2018-11-13T07:00:49.406Z,0.60
2018-11-13T07:03:17.478Z,0.80
2018-11-13T07:05:45.551Z,0.80
2018-11-13T07:08:13.610Z,0.80
2018-11-13T07:10:41.744Z,1.00
2018-11-13T07:13:10.097Z,1.23
2018-11-13T07:15:38.213Z,4.80
2018-11-13T07:18:06.334Z,11.10
2018-11-13T07:20:35.213Z,6.57
2018-11-13T07:23:03.685Z,5.60
2018-11-13T07:25:31.858Z,3.40
2018-11-13T07:28:00.121Z,3.63
2018-11-13T07:30:28.645Z,3.57
2018-11-13T07:32:57.014Z,2.77
2018-11-13T07:35:25.119Z,1.93
2018-11-13T07:37:54.570Z,2.50
2018-11-13T07:40:22.996Z,2.20
2018-11-13T07:42:51.452Z,1.67
2018-11-13T07:45:19.756Z,1.60
2018-11-13T07:47:48.448Z,2.43
2018-11-13T07:50:16.933Z,1.87
2018-11-13T07:52:45.010Z,1.90
2018-11-13T07:55:14.099Z,2.30
2018-11-13T07:57:42.162Z,1.90
2018-11-13T08:00:14.545Z,2.43
2018-11-13T08:02:44.037Z,2.30
2018-11-13T08:05:12.124Z,1.73
2018-11-13T08:07:40.233Z,2.00
2018-11-13T08:10:08.868Z,1.73
2018-11-13T08:12:37.190Z,1.63
2018-11-13T08:15:06.504Z,1.33
2018-11-13T08:17:34.761Z,1.03
2018-11-13T08:20:02.897Z,1.27
2018-11-13T08:22:30.979Z,0.90
2018-11-13T08:24:59.085Z,1.23
2018-11-13T08:27:27.165Z,1.30
2018-11-13T08:29:55.292Z,1.03
2018-11-13T08:32:23.376Z,3.00
2018-11-13T08:34:51.458Z,2.20
2018-11-13T08:37:19.786Z,1.50
2018-11-13T08:39:48.050Z,1.90
2018-11-13T08:42:16.160Z,1.93
2018-11-13T08:44:44.550Z,1.80
2018-11-13T08:47:12.615Z,2.13
2018-11-13T08:49:40.901Z,2.00
2018-11-13T08:52:08.960Z,1.27
2018-11-13T08:54:37.064Z,1.47
2018-11-13T08:57:05.305Z,1.20
2018-11-13T08:59:33.473Z,1.30
2018-11-13T09:02:01.682Z,1.03
2018-11-13T09:04:29.749Z,1.23
2018-11-13T09:06:57.854Z,1.07
2018-11-13T09:09:25.916Z,2.03
2018-11-13T09:11:54.189Z,3.73
2018-11-13T09:14:22.353Z,1.70
2018-11-13T09:16:50.437Z,1.77
2018-11-13T09:19:18.667Z,1.73
2018-11-13T09:21:46.827Z,1.47
2018-11-13T09:24:15.070Z,1.00
2018-11-13T09:26:43.139Z,0.90
2018-11-13T09:29:11.310Z,1.10
2018-11-13T09:31:39.514Z,1.47
2018-11-13T09:34:07.752Z,1.10
2018-11-13T09:36:35.821Z,2.93
2018-11-13T09:39:06.148Z,1.40
2018-11-13T09:41:34.236Z,1.30
2018-11-13T09:44:02.396Z,1.57
2018-11-13T09:46:30.524Z,1.27
2018-11-13T09:48:58.966Z,0.80
2018-11-13T09:51:27.054Z,1.03
2018-11-13T09:53:55.230Z,1.20
2018-11-13T09:56:23.572Z,1.00
2018-11-13T09:58:51.800Z,0.70
2018-11-13T10:01:20.387Z,1.03
2018-11-13T10:03:49.171Z,0.90
2018-11-13T10:06:16.743Z,0.73
2018-11-13T10:08:44.857Z,1.00
2018-11-13T10:11:13.036Z,0.70
2018-11-13T10:13:41.149Z,2.07
2018-11-13T10:16:09.233Z,2.17
2018-11-13T10:18:37.314Z,0.90
2018-11-13T10:21:05.435Z,0.90
2018-11-13T10:23:33.524Z,0.80
2018-11-13T10:26:01.658Z,0.67
2018-11-13T10:28:29.736Z,0.93
2018-11-13T10:30:57.920Z,0.67
2018-11-13T10:33:26.212Z,0.70
2018-11-13T10:35:54.281Z,0.60
2018-11-13T10:38:22.450Z,0.60
2018-11-13T10:40:50.947Z,0.70
2018-11-13T10:43:19.413Z,0.73
2018-11-13T10:45:47.497Z,0.70
2018-11-13T10:48:15.602Z,0.73
2018-11-13T10:50:43.689Z,0.70
2018-11-13T10:53:11.817Z,0.90
2018-11-13T10:55:39.901Z,0.60
2018-11-13T10:58:08.273Z,1.10
2018-11-13T11:00:41.877Z,0.80
2018-11-13T11:03:14.281Z,0.60
2018-11-13T11:05:42.360Z,0.90
2018-11-13T11:08:10.556Z,0.80
2018-11-13T11:10:38.895Z,0.87
2018-11-13T11:13:07.101Z,0.70
2018-11-13T11:15:35.235Z,0.70
2018-11-13T11:18:03.687Z,0.70
2018-11-13T11:20:32.019Z,0.80
2018-11-13T11:23:00.240Z,0.77
2018-11-13T11:25:28.617Z,0.60
2018-11-13T11:27:56.953Z,0.70
2018-11-13T11:30:25.239Z,0.90
2018-11-13T11:32:53.312Z,0.70
2018-11-13T11:35:21.525Z,0.70
2018-11-13T11:37:49.622Z,0.80
2018-11-13T11:40:17.719Z,0.70
2018-11-13T11:42:45.798Z,0.80
2018-11-13T11:45:14.451Z,0.60
2018-11-13T11:47:42.859Z,2.40
2018-11-13T11:50:12.153Z,0.83
2018-11-13T11:52:40.238Z,0.80
2018-11-13T11:55:08.825Z,0.77
2018-11-13T11:57:36.929Z,0.80
2018-11-13T12:00:07.143Z,0.83
2018-11-13T12:02:35.251Z,0.90
2018-11-13T12:05:03.428Z,0.90
2018-11-13T12:07:31.625Z,0.80
2018-11-13T12:09:59.708Z,0.70
2018-11-13T12:12:27.820Z,0.70
2018-11-13T12:14:56.042Z,0.70
2018-11-13T12:17:24.277Z,0.70
2018-11-13T12:19:52.545Z,0.83
2018-11-13T12:22:20.685Z,0.97
2018-11-13T12:24:48.865Z,0.80
2018-11-13T12:27:16.934Z,0.90
2018-11-13T12:29:45.088Z,1.03
2018-11-13T12:32:13.235Z,1.00
2018-11-13T12:34:41.522Z,0.87
2018-11-13T12:37:09.734Z,1.10
2018-11-13T12:39:37.913Z,1.07
2018-11-13T12:42:06.280Z,1.80
2018-11-13T12:44:34.357Z,0.90
2018-11-13T12:47:02.430Z,0.60
2018-11-13T12:49:30.614Z,0.80
2018-11-13T12:52:04.226Z,0.80
2018-11-13T12:54:32.305Z,0.70
2018-11-13T12:57:00.445Z,0.70
2018-11-13T12:59:28.540Z,0.73
2018-11-13T13:01:56.655Z,0.60
2018-11-13T13:04:24.968Z,0.80
2018-11-13T13:06:53.272Z,0.60
2018-11-13T13:09:21.338Z,0.60
2018-11-13T13:11:49.503Z,0.70
2018-11-13T13:14:18.406Z,0.60
2018-11-13T13:16:46.700Z,0.60
2018-11-13T13:19:14.845Z,0.60
2018-11-13T13:21:43.085Z,0.60
2018-11-13T13:24:11.304Z,0.63
2018-11-13T13:26:39.409Z,0.83
2018-11-13T13:29:07.955Z,1.00
2018-11-13T13:31:36.926Z,0.60
2018-11-13T13:34:05.246Z,0.80
2018-11-13T13:36:33.425Z,1.17
2018-11-13T13:39:01.501Z,0.50
2018-11-13T13:41:29.698Z,0.70
2018-11-13T13:43:59.246Z,0.90
2018-11-13T13:46:27.393Z,0.70
2018-11-13T13:48:55.625Z,0.67
2018-11-13T13:51:23.726Z,0.50
2018-11-13T13:53:51.900Z,0.87
2018-11-13T13:56:20.205Z,0.90
2018-11-13T13:58:48.309Z,0.50
2018-11-13T14:01:16.440Z,0.63
2018-11-13T14:03:44.581Z,0.83
2018-11-13T14:06:12.764Z,0.60
2018-11-13T14:08:41.085Z,1.30
2018-11-13T14:11:09.414Z,0.50
2018-11-13T14:13:37.689Z,0.80
2018-11-13T14:16:06.029Z,0.57
2018-11-13T14:18:34.203Z,0.60
2018-11-13T14:21:02.381Z,0.50
2018-11-13T14:23:30.794Z,0.60
2018-11-13T14:25:58.910Z,0.63
2018-11-13T14:28:27.047Z,0.70
2018-11-13T14:30:55.147Z,0.60
2018-11-13T14:33:23.709Z,0.90
2018-11-13T14:35:51.861Z,2.07
2018-11-13T14:38:19.964Z,0.97
2018-11-13T14:40:48.752Z,1.00
2018-11-13T14:43:16.882Z,18.50
2018-11-13T14:45:45.432Z,1.20
2018-11-13T14:48:13.778Z,0.70
2018-11-13T14:50:42.662Z,0.53
2018-11-13T14:53:11.593Z,1.50
2018-11-13T14:55:41.677Z,1.57
2018-11-13T14:58:10.973Z,1.13
2018-11-13T15:00:39.396Z,0.70
2018-11-13T15:03:08.853Z,0.90
2018-11-13T15:05:37.030Z,1.20
2018-11-13T15:08:06.380Z,1.00
2018-11-13T15:10:49.517Z,1.47
2018-11-13T15:13:18.148Z,1.10
2018-11-13T15:15:46.546Z,1.20
2018-11-13T15:18:14.848Z,20.80
2018-11-13T15:20:43.416Z,1.70
2018-11-13T15:23:12.435Z,1.40
2018-11-13T15:25:40.657Z,1.30
2018-11-13T15:28:09.580Z,1.10
2018-11-13T15:30:39.387Z,1.20
2018-11-13T15:33:09.636Z,1.17
2018-11-13T15:35:38.081Z,0.87
2018-11-13T15:38:06.404Z,0.80
2018-11-13T15:40:34.525Z,1.30
2018-11-13T15:43:02.647Z,1.80
2018-11-13T15:45:30.781Z,1.53
2018-11-13T15:48:00.400Z,1.00
2018-11-13T15:50:30.735Z,1.10
2018-11-13T15:52:59.207Z,1.13
2018-11-13T15:55:27.672Z,1.00
2018-11-13T15:57:56.283Z,1.40
2018-11-13T16:00:26.614Z,1.10
2018-11-13T16:02:55.125Z,1.17
2018-11-13T16:05:26.259Z,1.60
2018-11-13T16:07:55.728Z,1.30
2018-11-13T16:10:23.942Z,1.50
2018-11-13T16:12:52.183Z,1.40
2018-11-13T16:15:21.301Z,1.50
2018-11-13T16:17:50.393Z,1.27
2018-11-13T16:20:19.362Z,1.20
2018-11-13T16:22:47.589Z,1.07
2018-11-13T16:25:16.433Z,1.20
2018-11-13T16:27:44.602Z,1.30
2018-11-13T16:30:14.204Z,1.33
2018-11-13T16:32:43.245Z,1.30
2018-11-13T16:35:13.183Z,1.47
2018-11-13T16:37:42.800Z,1.30
2018-11-13T16:40:13.313Z,1.50
2018-11-13T16:42:41.865Z,1.57
2018-11-13T16:45:11.186Z,2.10
2018-11-13T16:47:39.648Z,2.03
2018-11-13T16:50:08.892Z,2.00
2018-11-13T16:52:37.054Z,2.23
2018-11-13T16:55:05.566Z,1.57
2018-11-13T16:57:33.779Z,1.60
2018-11-13T17:00:02.063Z,1.53
2018-11-13T17:02:30.396Z,1.73
2018-11-13T17:04:58.645Z,1.73
2018-11-13T17:07:27.014Z,2.30
2018-11-13T17:09:55.190Z,1.93
2018-11-13T17:12:23.625Z,2.27
2018-11-13T17:14:51.829Z,2.23
2018-11-13T17:17:20.031Z,1.93
2018-11-13T17:19:48.305Z,2.30
2018-11-13T17:22:16.587Z,2.10
2018-11-13T17:24:44.667Z,1.70
2018-11-13T17:27:12.860Z,2.60
2018-11-13T17:29:41.118Z,2.13
2018-11-13T17:32:09.541Z,2.40
2018-11-13T17:34:37.652Z,2.60
2018-11-13T17:37:06.003Z,2.10
2018-11-13T17:39:34.137Z,2.10
2018-11-13T17:42:02.403Z,2.43
2018-11-13T17:44:30.958Z,2.50
2018-11-13T17:46:59.142Z,2.80
2018-11-13T17:49:27.321Z,2.63
2018-11-13T17:51:55.582Z,2.80
2018-11-13T17:54:23.771Z,2.70
2018-11-13T17:56:52.017Z,2.60
2018-11-13T17:59:20.198Z,2.73
2018-11-13T18:01:48.977Z,2.30
2018-11-13T18:04:17.241Z,2.83
2018-11-13T18:06:45.472Z,2.30
2018-11-13T18:09:15.235Z,2.70
2018-11-13T18:11:44.515Z,2.60
2018-11-13T18:14:12.973Z,2.50
2018-11-13T18:16:41.290Z,2.87
2018-11-13T18:19:09.394Z,3.00
2018-11-13T18:21:37.555Z,3.17
2018-11-13T18:24:05.856Z,2.80
2018-11-13T18:26:34.003Z,2.50
2018-11-13T18:29:02.096Z,2.17
2018-11-13T18:31:30.158Z,2.10
2018-11-13T18:33:58.292Z,2.30
2018-11-13T18:36:26.646Z,1.90
2018-11-13T18:38:54.933Z,1.53
2018-11-13T18:41:23.107Z,1.87
2018-11-13T18:43:51.306Z,1.67
2018-11-13T18:46:19.431Z,2.20
2018-11-13T18:48:47.645Z,1.90
2018-11-13T18:51:15.875Z,2.07
2018-11-13T18:53:44.143Z,1.80
2018-11-13T18:56:12.626Z,2.00
2018-11-13T18:58:40.902Z,1.90
2018-11-13T19:01:09.039Z,1.97
2018-11-13T19:03:37.561Z,2.77
2018-11-13T19:06:06.531Z,2.80
2018-11-13T19:08:34.629Z,2.93
2018-11-13T19:11:03.738Z,3.00
2018-11-13T19:13:32.313Z,3.47
2018-11-13T19:16:01.877Z,2.70
2018-11-13T19:18:30.322Z,3.20
2018-11-13T19:20:58.419Z,3.53
2018-11-13T19:23:26.578Z,3.03
2018-11-13T19:25:54.727Z,3.03
2018-11-13T19:28:22.845Z,3.30
2018-11-13T19:30:51.038Z,4.20
2018-11-13T19:33:19.135Z,4.53
2018-11-13T19:35:47.474Z,3.47
2018-11-13T19:38:15.799Z,4.07
2018-11-13T19:40:43.884Z,3.77
2018-11-13T19:43:13.195Z,4.13
2018-11-13T19:45:41.340Z,3.83
2018-11-13T19:48:09.573Z,4.47
2018-11-13T19:50:38.116Z,3.70
2018-11-13T19:53:06.508Z,4.40
2018-11-13T19:55:35.213Z,4.23
2018-11-13T19:58:03.380Z,3.77
2018-11-13T20:00:33.335Z,3.93
2018-11-13T20:03:02.957Z,4.30
2018-11-13T20:05:31.718Z,4.53
2018-11-13T20:07:59.981Z,4.60
2018-11-13T20:10:29.813Z,4.00
2018-11-13T20:12:59.589Z,4.43
2018-11-13T20:15:28.634Z,4.80
2018-11-13T20:17:56.896Z,4.43
2018-11-13T20:20:27.453Z,4.03
2018-11-13T20:22:56.188Z,4.27
2018-11-13T20:25:30.278Z,4.33
2018-11-13T20:27:58.608Z,5.47
2018-11-13T20:30:28.989Z,5.57
2018-11-13T20:32:57.222Z,6.00
2018-11-13T20:35:26.171Z,5.70
2018-11-13T20:37:55.367Z,6.30
2018-11-13T20:40:25.755Z,5.50
2018-11-13T20:42:55.177Z,5.30
2018-11-13T20:45:23.338Z,5.63
2018-11-13T20:47:51.488Z,5.33
2018-11-13T20:50:22.180Z,6.20
2018-11-13T20:52:50.293Z,7.07
2018-11-13T20:55:18.679Z,7.90
2018-11-13T20:57:46.996Z,7.00
2018-11-13T21:00:18.455Z,6.70
2018-11-13T21:02:47.097Z,7.20
2018-11-13T21:05:15.664Z,7.60
2018-11-13T21:07:43.894Z,7.67
2018-11-13T21:10:17.613Z,8.30
2018-11-13T21:12:45.918Z,7.77
2018-11-13T21:15:16.696Z,6.60
2018-11-13T21:17:44.814Z,7.53
2018-11-13T21:20:14.576Z,7.40
2018-11-13T21:22:42.844Z,7.50
2018-11-13T21:25:15.330Z,6.53
2018-11-13T21:27:43.669Z,7.70
2018-11-13T21:30:16.742Z,7.77
2018-11-13T21:32:45.661Z,7.37
2018-11-13T21:35:14.079Z,8.20
2018-11-13T21:37:43.474Z,7.57
2018-11-13T21:40:14.600Z,7.43
2018-11-13T21:42:43.390Z,8.67
2018-11-13T21:45:12.289Z,9.00
2018-11-13T21:47:40.883Z,9.83
2018-11-13T21:50:10.361Z,10.50
2018-11-13T21:52:38.745Z,9.70
2018-11-13T21:55:08.032Z,9.67
2018-11-13T21:57:36.150Z,10.40
2018-11-13T22:00:05.845Z,9.07
2018-11-13T22:02:34.045Z,9.80
2018-11-13T22:05:02.287Z,9.57
2018-11-13T22:07:30.577Z,9.80
2018-11-13T22:09:58.720Z,10.57
2018-11-13T22:12:26.837Z,15.03
2018-11-13T22:14:55.258Z,12.87
2018-11-13T22:17:23.589Z,11.63
2018-11-13T22:19:51.861Z,8.70
2018-11-13T22:22:20.121Z,10.93
2018-11-13T22:24:48.401Z,12.57
2018-11-13T22:27:16.801Z,18.10
2018-11-13T22:29:45.175Z,12.40
2018-11-13T22:32:13.853Z,14.30
2018-11-13T22:34:41.926Z,14.30
2018-11-13T22:37:10.129Z,12.80
2018-11-13T22:39:38.276Z,14.00
2018-11-13T22:42:06.609Z,12.80
2018-11-13T22:44:34.857Z,10.53
2018-11-13T22:47:02.930Z,35.47
2018-11-13T22:49:31.111Z,21.90
2018-11-13T22:51:59.365Z,20.33
2018-11-13T22:54:27.626Z,16.20
2018-11-13T22:56:55.898Z,15.40
2018-11-13T22:59:23.991Z,17.47
2018-11-13T23:01:52.191Z,11.73
2018-11-13T23:04:20.392Z,9.27
2018-11-13T23:06:48.535Z,14.30
2018-11-13T23:09:16.754Z,12.23
2018-11-13T23:11:44.868Z,13.00
2018-11-13T23:14:12.951Z,14.10
2018-11-13T23:16:41.113Z,14.00
2018-11-13T23:19:09.162Z,9.60
2018-11-13T23:21:37.250Z,7.10
2018-11-13T23:24:05.337Z,7.40
2018-11-13T23:26:33.542Z,7.10
2018-11-13T23:29:01.792Z,8.70
2018-11-13T23:31:30.211Z,8.97
2018-11-13T23:33:58.319Z,8.70
2018-11-13T23:36:26.545Z,8.57
2018-11-13T23:38:54.714Z,8.77
2018-11-13T23:41:22.974Z,10.00
2018-11-13T23:43:51.238Z,9.20
2018-11-13T23:46:19.397Z,9.40
2018-11-13T23:48:47.517Z,9.57
2018-11-13T23:51:15.643Z,8.40
2018-11-13T23:53:43.833Z,9.67
2018-11-13T23:56:12.005Z,9.97
2018-11-13T23:58:40.133Z,9.50
